Time;durP1;ratioP1;P1;durP2;ratioP2;P2;SDS_P1;SDS_P2;PMS_P1;PMS_P2;Temp;Humidity;BMP_temperature;BMP_pressure;BME280_temperature;BME280_humidity;BME280_pressure;Samples;Min_cycle;Max_cycle;Signal;HPM_P1;HPM_P2
2021/03/17 00:00:31;;;;;;;19.20;11.50;;;4.20;99.90;;;;;;5105201;28;20771;-74
2021/03/17 00:02:58;;;;;;;16.90;11.13;;;4.20;99.90;;;;;;5101078;28;20674;-72
2021/03/17 00:05:29;;;;;;;20.93;11.70;;;4.10;99.90;;;;;;5104941;28;20196;-73
2021/03/17 00:07:56;;;;;;;21.43;11.13;;;4.10;99.90;;;;;;5103370;28;20195;-73
2021/03/17 00:10:23;;;;;;;20.80;11.57;;;4.10;99.90;;;;;;5102147;28;20299;-74
2021/03/17 00:12:50;;;;;;;17.33;11.27;;;3.90;99.90;;;;;;5104448;28;20239;-74
2021/03/17 00:15:19;;;;;;;22.90;11.90;;;3.90;99.90;;;;;;5100103;28;20228;-73
2021/03/17 00:17:45;;;;;;;20.90;11.40;;;3.90;99.90;;;;;;5098468;28;20207;-74
2021/03/17 00:20:12;;;;;;;18.87;10.80;;;3.90;99.90;;;;;;5109698;28;20363;-73
2021/03/17 00:22:39;;;;;;;21.87;11.53;;;3.90;99.90;;;;;;5101940;28;20211;-73
2021/03/17 00:25:06;;;;;;;20.23;11.50;;;3.90;99.90;;;;;;5108485;28;20298;-73
2021/03/17 00:27:33;;;;;;;16.97;11.13;;;3.90;99.90;;;;;;5103875;28;20288;-73
2021/03/17 00:30:00;;;;;;;20.50;11.17;;;3.80;99.90;;;;;;5109930;28;20235;-73
2021/03/17 00:32:26;;;;;;;19.67;11.00;;;3.80;99.90;;;;;;5100172;28;20596;-74
2021/03/17 00:34:53;;;;;;;16.37;11.00;;;3.80;99.90;;;;;;5103790;28;20304;-73
2021/03/17 00:37:19;;;;;;;17.03;10.90;;;3.80;99.90;;;;;;5110176;28;20361;-74
2021/03/17 00:39:46;;;;;;;20.43;10.77;;;3.80;99.90;;;;;;5108549;28;20267;-74
2021/03/17 00:42:13;;;;;;;19.13;11.17;;;3.80;99.90;;;;;;5112579;28;20197;-74
2021/03/17 00:44:39;;;;;;;17.47;10.87;;;3.70;99.90;;;;;;5107599;28;20283;-73
2021/03/17 00:47:05;;;;;;;17.73;10.87;;;3.70;99.90;;;;;;5106295;28;20208;-73
2021/03/17 00:49:32;;;;;;;20.17;10.90;;;3.70;99.90;;;;;;5099158;28;20201;-73
2021/03/17 00:51:58;;;;;;;17.47;10.73;;;3.70;99.90;;;;;;5100845;28;20304;-73
2021/03/17 00:54:25;;;;;;;18.93;11.13;;;3.70;99.90;;;;;;5107179;28;20229;-72
2021/03/17 00:56:53;;;;;;;19.10;10.50;;;3.70;99.90;;;;;;5109394;28;20207;-73
2021/03/17 00:59:19;;;;;;;17.90;9.83;;;3.60;99.90;;;;;;5103417;28;20216;-74
2021/03/17 01:01:46;;;;;;;19.47;10.73;;;3.50;99.90;;;;;;5100681;28;20667;-73
2021/03/17 01:04:12;;;;;;;19.50;11.03;;;3.50;99.90;;;;;;5106278;28;20287;-72
2021/03/17 01:06:39;;;;;;;16.40;10.67;;;3.50;99.90;;;;;;5104193;28;20741;-73
2021/03/17 01:09:05;;;;;;;14.47;9.73;;;3.50;99.90;;;;;;5106317;28;20329;-72
2021/03/17 01:11:32;;;;;;;16.27;10.07;;;3.50;99.90;;;;;;5103654;28;20201;-73
2021/03/17 01:13:59;;;;;;;18.93;10.50;;;3.40;99.90;;;;;;5105970;28;20320;-73
2021/03/17 01:16:26;;;;;;;14.10;9.53;;;3.40;99.90;;;;;;5107278;28;20234;-73
2021/03/17 01:18:52;;;;;;;13.57;9.17;;;3.40;99.90;;;;;;5105424;28;20375;-73
2021/03/17 01:21:18;;;;;;;19.13;10.90;;;3.40;99.90;;;;;;5104248;28;20555;-73
2021/03/17 01:23:45;;;;;;;15.23;9.00;;;3.40;99.90;;;;;;5099869;28;20577;-73
2021/03/17 01:26:11;;;;;;;15.93;9.23;;;3.40;99.90;;;;;;5106649;28;20283;-73
2021/03/17 01:28:39;;;;;;;20.20;10.13;;;3.30;99.90;;;;;;5100550;28;20207;-73
2021/03/17 01:31:06;;;;;;;16.37;9.93;;;3.30;99.90;;;;;;5102341;28;20204;-72
2021/03/17 01:33:33;;;;;;;14.60;9.23;;;3.30;99.90;;;;;;5105324;28;20219;-72
2021/03/17 01:36:00;;;;;;;15.03;9.47;;;3.20;99.90;;;;;;5104281;28;20231;-72
2021/03/17 01:38:27;;;;;;;15.27;10.50;;;3.20;99.90;;;;;;5103627;28;20290;-72
2021/03/17 01:40:54;;;;;;;16.63;9.20;;;3.30;99.90;;;;;;5102810;28;20215;-73
2021/03/17 01:43:22;;;;;;;13.47;9.60;;;3.20;99.90;;;;;;5104728;28;20208;-72
2021/03/17 01:45:48;;;;;;;17.77;10.30;;;3.20;99.90;;;;;;5110009;28;20210;-73
2021/03/17 01:48:15;;;;;;;15.00;9.20;;;3.20;99.90;;;;;;5104721;28;20208;-73
2021/03/17 01:50:46;;;;;;;17.30;9.97;;;3.20;99.90;;;;;;5107038;28;20211;-73
2021/03/17 01:53:14;;;;;;;16.67;9.53;;;3.10;99.90;;;;;;5106196;28;20204;-73
2021/03/17 01:55:41;;;;;;;13.97;9.17;;;3.10;99.90;;;;;;5106736;28;20220;-73
2021/03/17 01:58:08;;;;;;;16.97;9.43;;;3.10;99.90;;;;;;5105766;28;20588;-72
2021/03/17 02:00:35;;;;;;;14.33;8.93;;;3.10;99.90;;;;;;5104229;28;20204;-72
2021/03/17 02:03:02;;;;;;;14.13;9.17;;;3.00;99.90;;;;;;5096186;28;20272;-73
2021/03/17 02:05:31;;;;;;;13.37;9.03;;;2.90;99.90;;;;;;5106739;28;20247;-73
2021/03/17 02:08:00;;;;;;;15.67;8.73;;;2.90;99.90;;;;;;5104976;28;20282;-73
2021/03/17 02:10:26;;;;;;;17.73;9.30;;;2.90;99.90;;;;;;5103998;28;20286;-72
2021/03/17 02:13:13;;;;;;;15.63;9.57;;;2.90;99.90;;;;;;5103410;28;20203;-73
2021/03/17 02:15:51;;;;;;;17.73;9.40;;;2.80;99.90;;;;;;5100260;28;20251;-72
2021/03/17 02:18:29;;;;;;;14.03;9.17;;;2.80;99.90;;;;;;5101986;28;20193;-72
2021/03/17 02:21:12;;;;;;;16.30;9.27;;;2.80;99.90;;;;;;5098713;28;20196;-72
2021/03/17 02:23:45;;;;;;;14.77;8.70;;;2.80;99.90;;;;;;5102126;28;20696;-73
2021/03/17 02:26:39;;;;;;;14.17;8.93;;;2.70;99.90;;;;;;5099542;28;20573;-71
2021/03/17 02:29:47;;;;;;;14.80;9.53;;;2.70;99.90;;;;;;5067679;28;20236;-73
2021/03/17 02:32:21;;;;;;;15.43;8.53;;;2.60;99.90;;;;;;5099158;28;20218;-72
2021/03/17 02:34:49;;;;;;;16.83;8.67;;;2.60;99.90;;;;;;5101102;28;20235;-73
2021/03/17 02:37:19;;;;;;;17.07;8.93;;;2.60;99.90;;;;;;5102022;28;20219;-72
2021/03/17 02:39:52;;;;;;;14.87;9.53;;;2.60;99.90;;;;;;5101718;28;20197;-73
2021/03/17 02:42:24;;;;;;;14.90;8.93;;;2.60;99.90;;;;;;5104073;28;20193;-73
2021/03/17 02:44:57;;;;;;;15.63;8.97;;;2.60;99.90;;;;;;5099438;28;20212;-73
2021/03/17 02:47:27;;;;;;;14.87;8.70;;;2.50;99.90;;;;;;5109306;28;20207;-72
2021/03/17 02:49:57;;;;;;;16.50;9.90;;;2.50;99.90;;;;;;5101747;28;20659;-72
2021/03/17 02:52:30;;;;;;;14.00;8.67;;;2.50;99.90;;;;;;5103874;28;20204;-72
2021/03/17 02:54:57;;;;;;;12.87;8.20;;;2.50;99.90;;;;;;5102885;28;20222;-72
2021/03/17 02:57:26;;;;;;;15.87;9.53;;;2.50;99.90;;;;;;5102422;28;20201;-73
2021/03/17 02:59:55;;;;;;;14.47;8.93;;;2.50;99.90;;;;;;5100903;28;20209;-72
2021/03/17 03:02:22;;;;;;;17.23;9.17;;;2.50;99.90;;;;;;5100053;28;20689;-73
2021/03/17 03:04:51;;;;;;;13.80;8.57;;;2.50;99.90;;;;;;5100818;28;20659;-74
2021/03/17 03:07:19;;;;;;;13.30;8.57;;;2.50;99.90;;;;;;5099533;28;20371;-72
2021/03/17 03:09:46;;;;;;;18.17;9.47;;;2.50;99.90;;;;;;5099884;28;20215;-73
2021/03/17 03:12:13;;;;;;;13.70;8.93;;;2.40;99.90;;;;;;5103823;28;20610;-72
2021/03/17 03:14:40;;;;;;;14.87;9.63;;;2.40;99.90;;;;;;5105838;28;20337;-73
2021/03/17 03:17:08;;;;;;;15.10;9.03;;;2.50;99.90;;;;;;5103034;28;20209;-72
2021/03/17 03:19:41;;;;;;;12.57;9.23;;;2.40;99.90;;;;;;5104176;28;20208;-73
2021/03/17 03:22:09;;;;;;;13.70;8.43;;;2.40;99.90;;;;;;5102124;28;20201;-71
2021/03/17 03:24:38;;;;;;;15.23;9.30;;;2.50;99.90;;;;;;5099859;28;20207;-73
2021/03/17 03:27:05;;;;;;;16.83;10.13;;;2.40;99.90;;;;;;5111281;28;20275;-73
2021/03/17 03:29:34;;;;;;;14.43;9.07;;;2.40;99.90;;;;;;5107200;28;20203;-72
2021/03/17 03:32:03;;;;;;;13.97;9.13;;;2.50;99.90;;;;;;5103909;28;20203;-74
2021/03/17 03:34:30;;;;;;;13.50;9.03;;;2.50;99.90;;;;;;5105528;28;20267;-73
2021/03/17 03:36:56;;;;;;;14.17;9.67;;;2.50;99.90;;;;;;5108417;28;20288;-73
2021/03/17 03:39:23;;;;;;;14.63;9.83;;;2.50;99.90;;;;;;5107624;28;20195;-73
2021/03/17 03:41:50;;;;;;;16.93;10.63;;;2.60;99.90;;;;;;5103150;28;20643;-73
2021/03/17 03:44:17;;;;;;;15.13;10.03;;;2.60;99.90;;;;;;5108721;28;20205;-73
2021/03/17 03:46:43;;;;;;;15.00;9.77;;;2.50;99.90;;;;;;5102322;28;20231;-73
2021/03/17 03:49:10;;;;;;;17.80;10.17;;;2.60;99.90;;;;;;5106554;28;20231;-73
2021/03/17 03:51:42;;;;;;;16.30;10.73;;;2.50;99.90;;;;;;5110154;28;20207;-73
2021/03/17 03:54:15;;;;;;;19.67;11.50;;;2.50;99.90;;;;;;5108865;28;20284;-73
2021/03/17 03:56:48;;;;;;;18.67;11.67;;;2.40;99.90;;;;;;5105831;28;20220;-72
2021/03/17 03:59:23;;;;;;;18.20;11.90;;;2.40;99.90;;;;;;5106303;28;20201;-73
2021/03/17 04:01:54;;;;;;;17.60;11.23;;;2.40;99.90;;;;;;5109622;28;20231;-74
2021/03/17 04:04:23;;;;;;;13.70;9.87;;;2.30;99.90;;;;;;5108163;28;20964;-73
2021/03/17 04:06:52;;;;;;;19.87;10.97;;;2.30;99.90;;;;;;5108025;28;20253;-73
2021/03/17 04:09:25;;;;;;;18.33;11.60;;;2.20;99.90;;;;;;5106936;28;20208;-74
2021/03/17 04:11:55;;;;;;;17.03;10.37;;;2.20;99.90;;;;;;5108609;28;20207;-73
2021/03/17 04:14:24;;;;;;;12.63;8.00;;;2.20;99.90;;;;;;5106999;28;20314;-71
2021/03/17 04:16:52;;;;;;;11.33;7.00;;;2.00;99.90;;;;;;5109591;28;20235;-73
2021/03/17 04:19:22;;;;;;;11.10;7.33;;;2.00;99.90;;;;;;5108097;28;20940;-72
2021/03/17 04:21:50;;;;;;;11.00;7.30;;;1.90;99.90;;;;;;5104875;28;20324;-72
2021/03/17 04:24:19;;;;;;;9.20;6.07;;;1.90;99.90;;;;;;5104726;28;20207;-75
2021/03/17 04:26:47;;;;;;;8.30;5.87;;;1.80;99.90;;;;;;5107897;28;20223;-72
2021/03/17 04:29:14;;;;;;;10.37;7.30;;;1.70;99.90;;;;;;5104624;28;20216;-73
2021/03/17 04:31:42;;;;;;;9.60;5.80;;;1.70;99.90;;;;;;5099789;28;20232;-73
2021/03/17 04:34:10;;;;;;;9.93;6.43;;;1.70;99.90;;;;;;5104308;28;20219;-73
2021/03/17 04:36:38;;;;;;;9.23;6.40;;;1.70;99.90;;;;;;5104726;28;20226;-72
2021/03/17 04:39:05;;;;;;;9.37;6.70;;;1.70;99.90;;;;;;5107846;28;20204;-72
2021/03/17 04:41:32;;;;;;;9.20;6.27;;;1.70;99.90;;;;;;5108095;28;20268;-73
2021/03/17 04:43:58;;;;;;;7.90;5.87;;;1.70;99.90;;;;;;5104392;28;20292;-73
2021/03/17 04:46:25;;;;;;;8.70;6.03;;;1.70;99.90;;;;;;5105497;28;20295;-73
2021/03/17 04:48:54;;;;;;;8.83;6.20;;;1.70;99.90;;;;;;5106119;28;20323;-73
2021/03/17 04:51:20;;;;;;;10.43;6.23;;;1.80;99.90;;;;;;5106435;28;20334;-74
2021/03/17 04:53:47;;;;;;;8.83;6.13;;;1.90;99.90;;;;;;5111806;28;20200;-73
2021/03/17 04:56:15;;;;;;;8.67;6.00;;;1.90;99.90;;;;;;5105540;28;20267;-71
2021/03/17 04:58:42;;;;;;;8.73;5.90;;;1.90;99.90;;;;;;5103771;28;20257;-73
2021/03/17 05:01:12;;;;;;;10.80;7.10;;;1.90;99.90;;;;;;5104563;28;20204;-73
2021/03/17 05:03:42;;;;;;;7.83;5.90;;;1.90;99.90;;;;;;5104268;28;20648;-72
2021/03/17 05:06:10;;;;;;;7.27;5.43;;;1.90;99.90;;;;;;5109714;28;20219;-73
2021/03/17 05:08:41;;;;;;;8.70;6.20;;;1.90;99.90;;;;;;5103915;28;20296;-72
2021/03/17 05:11:08;;;;;;;8.03;6.03;;;1.90;99.90;;;;;;5102982;28;20539;-72
2021/03/17 05:13:36;;;;;;;9.90;6.00;;;1.90;99.90;;;;;;5102461;28;20755;-73
2021/03/17 05:16:04;;;;;;;9.03;6.20;;;1.90;99.90;;;;;;5107846;28;20226;-73
2021/03/17 05:18:31;;;;;;;8.27;5.80;;;2.00;99.90;;;;;;5103513;28;20271;-72
2021/03/17 05:20:59;;;;;;;8.93;5.83;;;2.10;99.90;;;;;;5106209;28;20288;-74
2021/03/17 05:23:27;;;;;;;8.70;5.90;;;2.00;99.90;;;;;;5106628;28;20200;-74
2021/03/17 05:25:54;;;;;;;8.33;5.83;;;2.00;99.90;;;;;;5099953;28;20303;-73
2021/03/17 05:28:22;;;;;;;9.17;6.50;;;2.00;99.90;;;;;;5106963;28;20200;-72
2021/03/17 05:30:50;;;;;;;10.57;6.43;;;1.90;99.90;;;;;;5112432;28;20205;-72
2021/03/17 05:33:21;;;;;;;10.23;6.33;;;2.00;99.90;;;;;;5103316;28;20211;-73
2021/03/17 05:35:48;;;;;;;6.97;5.37;;;2.10;99.90;;;;;;5108945;28;20209;-73
2021/03/17 05:38:14;;;;;;;9.47;6.90;;;2.00;99.90;;;;;;5105348;28;20715;-73
2021/03/17 05:40:42;;;;;;;8.03;5.73;;;2.00;99.90;;;;;;5104991;28;20204;-73
2021/03/17 05:43:09;;;;;;;9.33;6.20;;;2.10;99.90;;;;;;5110261;28;20638;-73
2021/03/17 05:45:38;;;;;;;9.43;5.80;;;2.10;99.90;;;;;;5103824;28;20614;-72
2021/03/17 05:48:05;;;;;;;8.33;6.10;;;2.10;99.90;;;;;;5100400;28;20294;-73
2021/03/17 05:50:32;;;;;;;9.00;5.90;;;2.10;99.90;;;;;;5111623;28;20653;-73
2021/03/17 05:52:58;;;;;;;10.83;7.27;;;2.10;99.90;;;;;;5109405;28;20207;-73
2021/03/17 05:55:25;;;;;;;12.57;7.17;;;2.20;99.90;;;;;;5101456;28;20311;-73
2021/03/17 05:57:53;;;;;;;10.47;6.43;;;2.20;99.90;;;;;;5104714;28;20205;-72
2021/03/17 06:00:22;;;;;;;8.93;5.50;;;2.20;99.90;;;;;;5103899;28;20326;-72
2021/03/17 06:02:49;;;;;;;9.57;6.63;;;2.20;99.90;;;;;;5105195;28;20370;-73
2021/03/17 06:05:19;;;;;;;9.27;6.40;;;2.20;99.90;;;;;;5106688;28;20200;-72
2021/03/17 06:07:54;;;;;;;9.73;6.67;;;2.30;99.90;;;;;;5108156;28;20207;-73
2021/03/17 06:10:21;;;;;;;12.03;7.43;;;2.40;99.90;;;;;;5104401;28;20252;-74
2021/03/17 06:12:50;;;;;;;10.27;7.30;;;2.50;99.90;;;;;;5111150;28;20697;-75
2021/03/17 06:15:22;;;;;;;11.43;7.27;;;2.60;99.90;;;;;;5103264;28;20288;-76
2021/03/17 06:17:53;;;;;;;9.50;7.07;;;2.50;99.90;;;;;;5110891;28;20230;-75
2021/03/17 06:20:21;;;;;;;12.07;7.27;;;2.40;99.90;;;;;;5109482;28;20257;-71
2021/03/17 06:22:48;;;;;;;10.90;6.70;;;2.50;99.90;;;;;;5110674;28;20207;-71
2021/03/17 06:25:16;;;;;;;9.37;6.20;;;2.50;99.90;;;;;;5106909;28;20196;-70
2021/03/17 06:27:43;;;;;;;11.17;7.53;;;2.50;99.90;;;;;;5103135;28;20648;-72
2021/03/17 06:30:11;;;;;;;9.87;6.57;;;2.50;99.90;;;;;;5102337;28;20212;-73
2021/03/17 06:32:39;;;;;;;11.37;6.57;;;2.60;99.90;;;;;;5103992;28;20298;-71
2021/03/17 06:35:20;;;;;;;12.17;6.60;;;2.60;99.90;;;;;;5104174;28;20218;-72
2021/03/17 06:37:46;;;;;;;9.57;5.97;;;2.70;99.90;;;;;;5098600;28;20208;-72
2021/03/17 06:40:27;;;;;;;11.67;6.03;;;2.70;99.90;;;;;;5100026;28;20299;-73
2021/03/17 06:42:55;;;;;;;12.30;7.50;;;2.70;99.90;;;;;;5100518;28;20700;-72
2021/03/17 06:45:40;;;;;;;14.43;7.50;;;2.70;99.90;;;;;;5103789;28;20287;-72
2021/03/17 06:48:22;;;;;;;10.53;7.30;;;2.80;99.90;;;;;;5104983;28;20249;-71
2021/03/17 06:51:08;;;;;;;11.30;6.93;;;2.80;99.90;;;;;;5101950;28;20712;-71
2021/03/17 06:53:37;;;;;;;11.00;7.07;;;2.80;99.90;;;;;;5105298;28;20612;-71
2021/03/17 06:56:18;;;;;;;10.67;7.00;;;2.80;99.90;;;;;;5106924;28;20691;-72
2021/03/17 06:58:46;;;;;;;10.37;7.27;;;2.90;99.90;;;;;;5100971;28;20410;-70
2021/03/17 07:01:26;;;;;;;12.80;7.03;;;2.90;99.90;;;;;;5097487;28;20617;-71
2021/03/17 07:03:57;;;;;;;13.93;7.37;;;2.90;99.90;;;;;;5101142;28;20204;-72
2021/03/17 07:06:24;;;;;;;13.53;7.70;;;2.90;99.90;;;;;;5098072;28;20192;-71
2021/03/17 07:08:51;;;;;;;15.27;7.87;;;3.00;99.90;;;;;;5105355;28;20694;-72
2021/03/17 07:11:23;;;;;;;12.90;7.63;;;3.00;99.90;;;;;;5106386;28;20599;-70
2021/03/17 07:13:54;;;;;;;13.07;7.97;;;3.00;99.90;;;;;;5096086;28;20311;-70
2021/03/17 07:16:35;;;;;;;12.63;8.10;;;3.00;99.90;;;;;;5104107;28;20231;-71
2021/03/17 07:19:03;;;;;;;11.33;7.53;;;3.00;99.90;;;;;;5107874;28;20208;-73
2021/03/17 07:21:32;;;;;;;10.87;7.63;;;3.10;99.90;;;;;;5099875;28;20311;-72
2021/03/17 07:23:59;;;;;;;11.87;8.30;;;3.20;99.90;;;;;;5101835;28;20236;-72
2021/03/17 07:26:26;;;;;;;12.50;7.97;;;3.20;99.90;;;;;;5100332;28;20204;-74
2021/03/17 07:28:59;;;;;;;12.23;7.53;;;3.20;99.90;;;;;;5107227;28;20718;-74
2021/03/17 07:31:27;;;;;;;9.83;6.83;;;3.20;99.90;;;;;;5101676;28;20226;-73
2021/03/17 07:33:54;;;;;;;9.87;6.60;;;3.20;99.90;;;;;;5107520;28;20200;-74
2021/03/17 07:36:40;;;;;;;11.63;7.27;;;3.20;99.90;;;;;;5104769;28;20318;-74
2021/03/17 07:39:10;;;;;;;12.43;6.70;;;3.30;99.90;;;;;;5097998;28;20201;-77
2021/03/17 07:41:37;;;;;;;9.93;6.37;;;3.20;99.90;;;;;;5106828;28;20280;-74
2021/03/17 07:44:07;;;;;;;11.27;6.93;;;3.30;99.90;;;;;;5109707;28;20633;-74
2021/03/17 07:46:34;;;;;;;11.33;6.13;;;3.20;99.90;;;;;;5102764;28;20561;-78
2021/03/17 07:49:02;;;;;;;7.23;5.33;;;3.30;99.90;;;;;;5099938;28;20706;-71
2021/03/17 07:51:29;;;;;;;9.27;5.93;;;3.30;99.90;;;;;;5100258;28;20646;-73
2021/03/17 07:53:58;;;;;;;7.33;5.40;;;3.30;99.90;;;;;;5102137;28;20220;-72
2021/03/17 07:56:26;;;;;;;8.50;5.10;;;3.30;99.90;;;;;;5105101;28;20235;-72
2021/03/17 07:58:53;;;;;;;7.60;4.83;;;3.30;99.90;;;;;;5100417;28;20689;-73
2021/03/17 08:01:21;;;;;;;7.50;5.27;;;3.40;99.90;;;;;;5100442;28;20208;-72
2021/03/17 08:03:49;;;;;;;7.20;5.33;;;3.40;99.90;;;;;;5100518;28;20210;-72
2021/03/17 08:06:17;;;;;;;9.27;5.77;;;3.50;99.90;;;;;;5101438;28;20208;-71
2021/03/17 08:08:45;;;;;;;7.43;5.10;;;3.50;99.90;;;;;;5103132;28;20292;-72
2021/03/17 08:11:13;;;;;;;11.77;6.30;;;3.50;99.90;;;;;;5104122;28;20805;-70
2021/03/17 08:13:43;;;;;;;7.97;5.67;;;3.60;99.90;;;;;;5103176;28;20275;-71
2021/03/17 08:16:12;;;;;;;9.90;6.23;;;3.60;99.90;;;;;;5104787;28;20235;-72
2021/03/17 08:18:45;;;;;;;8.67;5.37;;;3.70;99.90;;;;;;5105012;28;20208;-74
2021/03/17 08:21:12;;;;;;;10.17;6.40;;;3.70;99.90;;;;;;5104569;28;20249;-74
2021/03/17 08:23:41;;;;;;;8.93;6.40;;;3.70;99.90;;;;;;5102446;28;20296;-73
2021/03/17 08:26:09;;;;;;;10.17;6.10;;;3.80;99.90;;;;;;5105090;28;20218;-74
2021/03/17 08:28:51;;;;;;;8.73;5.70;;;3.80;99.90;;;;;;5104504;28;20669;-71
2021/03/17 08:31:51;;;;;;;8.60;6.13;;;3.80;99.90;;;;;;5104290;28;20193;-72
2021/03/17 08:34:28;;;;;;;7.43;5.53;;;3.90;99.90;;;;;;5092741;28;20276;-73
2021/03/17 08:36:57;;;;;;;8.40;5.30;;;4.00;99.90;;;;;;5098136;28;20315;-72
2021/03/17 08:39:44;;;;;;;8.03;5.90;;;4.10;99.90;;;;;;5107592;28;20291;-72
2021/03/17 08:42:13;;;;;;;7.43;5.73;;;4.20;99.90;;;;;;5107164;28;20203;-74
2021/03/17 08:44:48;;;;;;;6.97;5.00;;;4.30;99.90;;;;;;5112090;28;20326;-73
2021/03/17 08:47:17;;;;;;;10.77;6.00;;;4.50;99.90;;;;;;5102101;28;20207;-74
2021/03/17 08:49:45;;;;;;;8.23;6.17;;;4.70;99.90;;;;;;5106940;28;20208;-73
2021/03/17 08:52:14;;;;;;;6.20;4.63;;;4.80;99.90;;;;;;5102907;28;20272;-73
2021/03/17 08:55:15;;;;;;;6.43;4.90;;;4.90;99.90;;;;;;5099821;28;20204;-71
2021/03/17 08:57:53;;;;;;;6.77;5.33;;;5.00;99.90;;;;;;5094696;28;20646;-71
2021/03/17 09:00:56;;;;;;;9.47;5.27;;;5.10;99.90;;;;;;5097116;28;20227;-71
2021/03/17 09:03:51;;;;;;;7.43;4.77;;;5.20;99.90;;;;;;5104684;28;20227;-71
2021/03/17 09:06:20;;;;;;;8.30;5.10;;;5.20;99.90;;;;;;5100106;28;20196;-72
2021/03/17 09:09:02;;;;;;;7.57;5.33;;;5.20;99.90;;;;;;5105246;28;20669;-71
2021/03/17 09:11:59;;;;;;;10.77;6.07;;;5.20;99.90;;;;;;5103917;28;20212;-71
2021/03/17 09:14:31;;;;;;;7.63;5.40;;;5.30;99.90;;;;;;5101528;28;20232;-72
2021/03/17 09:17:24;;;;;;;9.43;5.83;;;5.30;99.90;;;;;;5103820;28;20204;-71
2021/03/17 09:20:13;;;;;;;7.27;5.27;;;5.40;99.90;;;;;;5104960;28;20230;-71
2021/03/17 09:23:15;;;;;;;8.83;5.93;;;5.40;99.90;;;;;;5091274;28;20694;-72
2021/03/17 09:25:48;;;;;;;6.90;4.87;;;5.50;99.90;;;;;;5102486;28;20287;-71
2021/03/17 09:28:20;;;;;;;6.83;5.37;;;5.60;99.90;;;;;;5109076;28;20213;-71
2021/03/17 09:30:57;;;;;;;9.97;6.23;;;5.60;99.90;;;;;;5102786;28;20215;-72
2021/03/17 09:33:26;;;;;;;6.60;5.27;;;5.60;99.90;;;;;;5097844;28;20204;-71
2021/03/17 09:35:56;;;;;;;7.57;5.30;;;5.70;99.90;;;;;;5104577;28;20220;-72
2021/03/17 09:38:25;;;;;;;7.23;4.93;;;5.60;99.90;;;;;;5105794;28;20200;-72
2021/03/17 09:40:58;;;;;;;7.00;5.10;;;5.60;99.90;;;;;;5104050;28;20661;-72
2021/03/17 09:43:37;;;;;;;7.60;5.13;;;5.60;99.90;;;;;;5104573;28;20347;-73
2021/03/17 09:46:30;;;;;;;7.07;5.60;;;5.50;99.90;;;;;;5110285;28;20200;-72
2021/03/17 09:48:59;;;;;;;10.03;5.03;;;5.50;99.90;;;;;;5109454;28;20567;-72
2021/03/17 09:51:28;;;;;;;16.77;5.67;;;5.60;99.90;;;;;;5107831;28;20204;-71
2021/03/17 09:53:58;;;;;;;10.73;5.83;;;5.70;99.90;;;;;;5106074;28;20215;-72
2021/03/17 09:56:42;;;;;;;9.80;5.67;;;5.60;99.90;;;;;;5105593;28;20362;-72
2021/03/17 09:59:20;;;;;;;10.50;5.10;;;5.70;99.90;;;;;;5105914;28;20725;-71
2021/03/17 10:01:55;;;;;;;12.57;4.80;;;5.60;99.90;;;;;;5102515;28;20239;-72
2021/03/17 10:04:23;;;;;;;6.80;4.87;;;5.60;99.90;;;;;;5107179;28;20195;-72
2021/03/17 10:06:51;;;;;;;8.47;5.20;;;5.60;99.90;;;;;;5097482;28;20290;-72
2021/03/17 10:09:18;;;;;;;6.60;4.97;;;5.50;99.90;;;;;;5103765;28;20205;-72
2021/03/17 10:11:45;;;;;;;5.97;5.03;;;5.40;99.90;;;;;;5107497;28;20672;-72
2021/03/17 10:14:13;;;;;;;9.47;4.97;;;5.40;99.90;;;;;;5105589;28;20234;-71
2021/03/17 10:16:39;;;;;;;6.53;4.77;;;5.40;99.90;;;;;;5101590;28;20226;-72
2021/03/17 10:19:06;;;;;;;7.23;5.00;;;5.40;99.90;;;;;;5104067;28;20294;-71
2021/03/17 10:21:32;;;;;;;7.53;5.07;;;5.40;99.90;;;;;;5103445;28;20727;-71
2021/03/17 10:24:00;;;;;;;8.03;5.70;;;5.40;99.90;;;;;;5105171;28;20632;-72
2021/03/17 10:26:27;;;;;;;6.57;5.33;;;5.40;99.90;;;;;;5105406;28;20206;-71
2021/03/17 10:28:54;;;;;;;8.07;5.70;;;5.40;99.90;;;;;;5105945;28;20265;-71
2021/03/17 10:31:22;;;;;;;6.80;5.03;;;5.40;99.90;;;;;;5103303;28;20255;-72
2021/03/17 10:33:48;;;;;;;6.83;5.30;;;5.40;99.90;;;;;;5106730;28;20219;-72
2021/03/17 10:36:15;;;;;;;11.23;5.37;;;5.40;99.90;;;;;;5102432;28;20309;-71
2021/03/17 10:38:50;;;;;;;6.87;5.67;;;5.40;99.90;;;;;;5109046;28;20557;-71
2021/03/17 10:41:38;;;;;;;8.43;5.47;;;5.40;99.90;;;;;;5105272;28;20559;-71
2021/03/17 10:44:12;;;;;;;7.50;5.30;;;5.30;99.90;;;;;;5101230;28;20234;-71
2021/03/17 10:46:58;;;;;;;7.63;5.70;;;5.30;99.90;;;;;;5100624;28;20529;-72
2021/03/17 10:49:24;;;;;;;9.47;5.10;;;5.30;99.90;;;;;;5104588;28;20235;-72
2021/03/17 10:51:51;;;;;;;9.20;5.87;;;5.30;99.90;;;;;;5101451;28;20219;-71
2021/03/17 10:54:27;;;;;;;6.97;5.20;;;5.20;99.90;;;;;;5104328;28;20255;-73
2021/03/17 10:56:55;;;;;;;9.10;5.90;;;5.20;99.90;;;;;;5101272;28;20262;-73
2021/03/17 10:59:29;;;;;;;9.90;5.30;;;5.20;99.90;;;;;;5108244;28;20243;-72
2021/03/17 11:02:15;;;;;;;9.07;5.10;;;5.20;99.90;;;;;;5100662;28;20236;-72
2021/03/17 11:05:06;;;;;;;6.77;4.87;;;5.30;99.90;;;;;;5098856;28;20207;-72
2021/03/17 11:07:54;;;;;;;7.37;5.37;;;5.30;99.90;;;;;;5101889;28;20196;-73
2021/03/17 11:10:54;;;;;;;8.47;4.90;;;5.20;99.90;;;;;;5102451;28;20204;-72
2021/03/17 11:13:36;;;;;;;8.43;4.87;;;5.20;99.90;;;;;;5103607;28;20209;-72
2021/03/17 11:16:09;;;;;;;6.27;4.07;;;5.30;99.90;;;;;;5108320;28;20686;-71
2021/03/17 11:18:38;;;;;;;7.63;5.27;;;5.40;99.90;;;;;;5103345;28;20207;-74
2021/03/17 11:21:06;;;;;;;7.33;5.17;;;5.40;99.90;;;;;;5100137;28;20723;-72
2021/03/17 11:23:34;;;;;;;6.43;4.80;;;5.50;99.90;;;;;;5093806;28;20250;-72
2021/03/17 11:26:03;;;;;;;7.37;4.97;;;5.50;99.90;;;;;;5096576;28;20235;-72
2021/03/17 11:28:32;;;;;;;8.00;4.97;;;5.60;99.90;;;;;;5104448;28;20242;-75
2021/03/17 11:31:01;;;;;;;8.30;5.00;;;5.70;99.90;;;;;;5108059;28;20207;-74
2021/03/17 11:33:28;;;;;;;10.23;6.03;;;5.70;99.90;;;;;;5098943;28;20267;-75
2021/03/17 11:35:56;;;;;;;6.07;4.97;;;5.70;99.90;;;;;;5103695;28;20287;-73
2021/03/17 11:38:24;;;;;;;6.50;4.90;;;5.70;99.90;;;;;;5100592;28;20208;-76
2021/03/17 11:40:52;;;;;;;7.40;5.07;;;5.70;99.90;;;;;;5097196;28;20298;-75
2021/03/17 11:43:20;;;;;;;6.70;4.47;;;5.70;99.90;;;;;;5099744;28;20291;-74
2021/03/17 11:45:50;;;;;;;9.93;4.70;;;5.70;99.90;;;;;;5097079;28;20634;-75
2021/03/17 11:48:17;;;;;;;6.03;4.30;;;5.80;99.90;;;;;;5095777;28;20262;-74
2021/03/17 11:50:45;;;;;;;6.00;4.70;;;5.80;99.90;;;;;;5105834;28;20303;-74
2021/03/17 11:53:14;;;;;;;7.40;4.07;;;5.80;99.90;;;;;;5098435;28;20284;-73
2021/03/17 11:55:41;;;;;;;7.27;4.83;;;5.80;99.90;;;;;;5102569;28;20541;-76
2021/03/17 11:58:08;;;;;;;6.33;3.97;;;5.80;99.90;;;;;;5108767;28;20352;-73
2021/03/17 12:00:37;;;;;;;6.97;3.60;;;5.80;99.90;;;;;;5106518;28;20204;-76
2021/03/17 12:03:07;;;;;;;5.83;3.90;;;5.80;99.90;;;;;;5101923;28;20260;-73
2021/03/17 12:05:34;;;;;;;4.10;3.37;;;5.80;99.90;;;;;;5106471;28;20239;-77
2021/03/17 12:08:00;;;;;;;5.63;3.67;;;5.90;99.90;;;;;;5100420;28;20567;-73
2021/03/17 12:10:28;;;;;;;5.67;3.73;;;5.90;99.90;;;;;;5106331;28;20203;-76
2021/03/17 12:12:55;;;;;;;6.70;4.10;;;5.90;99.90;;;;;;5099799;28;20579;-74
2021/03/17 12:15:23;;;;;;;6.97;3.43;;;5.90;99.90;;;;;;5109933;28;20240;-74
2021/03/17 12:17:51;;;;;;;11.83;3.77;;;5.90;99.90;;;;;;5100994;28;20374;-74
2021/03/17 12:20:21;;;;;;;4.90;3.60;;;5.90;99.90;;;;;;5102241;28;20208;-73
2021/03/17 12:22:48;;;;;;;6.60;3.93;;;5.90;99.90;;;;;;5084759;28;20284;-74
2021/03/17 12:25:15;;;;;;;5.00;3.33;;;5.90;99.90;;;;;;5103780;28;20249;-74
2021/03/17 12:27:42;;;;;;;5.60;4.00;;;5.90;99.90;;;;;;5103056;28;20200;-74
2021/03/17 12:30:11;;;;;;;5.43;2.90;;;5.80;99.90;;;;;;5113250;28;20359;-73
2021/03/17 12:32:38;;;;;;;4.53;3.30;;;5.80;99.90;;;;;;5100414;28;20242;-75
2021/03/17 12:35:05;;;;;;;4.47;3.17;;;5.70;99.90;;;;;;5090807;28;20216;-75
2021/03/17 12:37:33;;;;;;;5.53;3.00;;;5.70;99.90;;;;;;5103905;28;20224;-73
2021/03/17 12:39:59;;;;;;;3.70;3.13;;;5.70;99.90;;;;;;5093438;28;20291;-75
2021/03/17 12:42:26;;;;;;;4.80;3.27;;;5.70;99.90;;;;;;5106571;28;20203;-74
2021/03/17 12:44:52;;;;;;;5.33;2.93;;;5.70;99.90;;;;;;5099522;28;20212;-73
2021/03/17 12:47:19;;;;;;;7.07;3.40;;;5.70;99.90;;;;;;5101280;28;20214;-71
2021/03/17 12:49:45;;;;;;;4.63;3.10;;;5.70;99.90;;;;;;5098262;28;20292;-72
2021/03/17 12:52:12;;;;;;;3.77;2.90;;;5.80;99.90;;;;;;5102311;28;20254;-74
2021/03/17 12:54:39;;;;;;;4.03;3.50;;;5.90;99.90;;;;;;5103446;28;20217;-73
2021/03/17 12:57:06;;;;;;;5.00;3.73;;;5.90;99.90;;;;;;5108816;28;20356;-72
2021/03/17 12:59:32;;;;;;;7.73;4.30;;;5.90;99.90;;;;;;5099121;28;20291;-79
2021/03/17 13:01:59;;;;;;;5.80;3.60;;;5.90;99.90;;;;;;5103439;28;20291;-78
2021/03/17 13:04:25;;;;;;;5.13;3.90;;;6.00;99.90;;;;;;5110204;28;20580;-74
2021/03/17 13:06:52;;;;;;;7.17;4.13;;;6.10;99.90;;;;;;5098744;28;20211;-76